sensor_id;sensor_type;location;lat;lon;timestamp;temperature;humidity
18777;DHT22;9517;51.174;4.160;2023-02-01T00:00:38;6.40;99.90
18777;DHT22;9517;51.174;4.160;2023-02-01T00:03:06;6.50;99.90
18777;DHT22;9517;51.174;4.160;2023-02-01T00:05:34;6.40;99.90
18777;DHT22;9517;51.174;4.160;2023-02-01T00:08:01;6.50;99.90
18777;DHT22;9517;51.174;4.160;2023-02-01T00:10:28;6.40;99.90
18777;DHT22;9517;51.174;4.160;2023-02-01T00:12:55;6.20;99.90
18777;DHT22;9517;51.174;4.160;2023-02-01T00:15:22;6.20;99.90
18777;DHT22;9517;51.174;4.160;2023-02-01T00:17:54;6.20;99.90
18777;DHT22;9517;51.174;4.160;2023-02-01T00:20:21;6.20;99.90
18777;DHT22;9517;51.174;4.160;2023-02-01T00:22:48;6.10;99.90
18777;DHT22;9517;51.174;4.160;2023-02-01T00:25:15;6.10;99.90
18777;DHT22;9517;51.174;4.160;2023-02-01T00:27:42;6.00;99.90
18777;DHT22;9517;51.174;4.160;2023-02-01T00:30:12;6.00;99.90
18777;DHT22;9517;51.174;4.160;2023-02-01T00:32:39;5.90;99.90
18777;DHT22;9517;51.174;4.160;2023-02-01T00:35:09;5.90;99.90
18777;DHT22;9517;51.174;4.160;2023-02-01T00:37:36;5.90;99.90
18777;DHT22;9517;51.174;4.160;2023-02-01T00:40:03;5.90;99.90
18777;DHT22;9517;51.174;4.160;2023-02-01T00:42:31;5.80;99.90
18777;DHT22;9517;51.174;4.160;2023-02-01T00:44:58;5.80;99.90
18777;DHT22;9517;51.174;4.160;2023-02-01T00:47:25;5.80;99.90
18777;DHT22;9517;51.174;4.160;2023-02-01T00:49:52;5.80;99.90
18777;DHT22;9517;51.174;4.160;2023-02-01T00:52:24;5.80;99.90
18777;DHT22;9517;51.174;4.160;2023-02-01T00:54:51;5.80;99.90
18777;DHT22;9517;51.174;4.160;2023-02-01T00:57:18;5.70;99.90
18777;DHT22;9517;51.174;4.160;2023-02-01T00:59:45;5.70;99.90
18777;DHT22;9517;51.174;4.160;2023-02-01T01:02:12;5.80;99.90
18777;DHT22;9517;51.174;4.160;2023-02-01T01:04:40;5.80;99.90
18777;DHT22;9517;51.174;4.160;2023-02-01T01:07:07;5.80;99.90
18777;DHT22;9517;51.174;4.160;2023-02-01T01:09:35;5.80;99.90
18777;DHT22;9517;51.174;4.160;2023-02-01T01:12:04;5.90;99.90
18777;DHT22;9517;51.174;4.160;2023-02-01T01:14:32;5.90;99.90
18777;DHT22;9517;51.174;4.160;2023-02-01T01:16:59;6.00;99.90
18777;DHT22;9517;51.174;4.160;2023-02-01T01:19:26;6.00;99.90
18777;DHT22;9517;51.174;4.160;2023-02-01T01:21:53;6.00;99.90
18777;DHT22;9517;51.174;4.160;2023-02-01T01:24:20;6.00;99.90
18777;DHT22;9517;51.174;4.160;2023-02-01T01:26:49;6.00;99.90
18777;DHT22;9517;51.174;4.160;2023-02-01T01:29:16;6.00;99.90
18777;DHT22;9517;51.174;4.160;2023-02-01T01:31:43;6.00;99.90
18777;DHT22;9517;51.174;4.160;2023-02-01T01:34:10;5.90;99.90
18777;DHT22;9517;51.174;4.160;2023-02-01T01:36:37;5.90;99.90
18777;DHT22;9517;51.174;4.160;2023-02-01T01:39:04;5.80;99.90
18777;DHT22;9517;51.174;4.160;2023-02-01T01:41:32;5.80;99.90
18777;DHT22;9517;51.174;4.160;2023-02-01T01:44:02;5.80;99.90
18777;DHT22;9517;51.174;4.160;2023-02-01T01:46:31;5.70;99.90
18777;DHT22;9517;51.174;4.160;2023-02-01T01:49:05;5.70;99.90
18777;DHT22;9517;51.174;4.160;2023-02-01T01:51:38;5.70;99.90
18777;DHT22;9517;51.174;4.160;2023-02-01T01:54:12;5.70;99.90
18777;DHT22;9517;51.174;4.160;2023-02-01T01:56:44;5.70;99.90
18777;DHT22;9517;51.174;4.160;2023-02-01T01:59:14;5.70;99.90
18777;DHT22;9517;51.174;4.160;2023-02-01T02:01:42;5.70;99.90
18777;DHT22;9517;51.174;4.160;2023-02-01T02:04:09;5.60;99.90
18777;DHT22;9517;51.174;4.160;2023-02-01T02:06:42;5.60;99.90
18777;DHT22;9517;51.174;4.160;2023-02-01T02:09:13;5.60;99.90
18777;DHT22;9517;51.174;4.160;2023-02-01T02:11:41;5.60;99.90
18777;DHT22;9517;51.174;4.160;2023-02-01T02:14:14;5.60;99.90
18777;DHT22;9517;51.174;4.160;2023-02-01T02:17:05;5.70;99.90
18777;DHT22;9517;51.174;4.160;2023-02-01T02:20:14;5.70;99.90
18777;DHT22;9517;51.174;4.160;2023-02-01T02:23:05;5.60;99.90
18777;DHT22;9517;51.174;4.160;2023-02-01T02:29:07;5.70;99.90
18777;DHT22;9517;51.174;4.160;2023-02-01T02:32:04;5.70;99.90
18777;DHT22;9517;51.174;4.160;2023-02-01T02:34:39;5.70;99.90
18777;DHT22;9517;51.174;4.160;2023-02-01T02:37:15;5.70;99.90
18777;DHT22;9517;51.174;4.160;2023-02-01T02:39:52;5.70;99.90
18777;DHT22;9517;51.174;4.160;2023-02-01T02:42:25;5.70;99.90
18777;DHT22;9517;51.174;4.160;2023-02-01T02:45:16;5.70;99.90
18777;DHT22;9517;51.174;4.160;2023-02-01T02:48:09;5.60;99.90
18777;DHT22;9517;51.174;4.160;2023-02-01T02:50:43;5.60;99.90
18777;DHT22;9517;51.174;4.160;2023-02-01T02:53:32;5.60;99.90
18777;DHT22;9517;51.174;4.160;2023-02-01T02:56:19;5.50;99.90
18777;DHT22;9517;51.174;4.160;2023-02-01T02:59:06;5.50;99.90
18777;DHT22;9517;51.174;4.160;2023-02-01T03:01:51;5.50;99.90
18777;DHT22;9517;51.174;4.160;2023-02-01T03:04:36;5.50;99.90
18777;DHT22;9517;51.174;4.160;2023-02-01T03:07:15;5.50;99.90
18777;DHT22;9517;51.174;4.160;2023-02-01T03:10:03;5.50;99.90
18777;DHT22;9517;51.174;4.160;2023-02-01T03:12:36;5.50;99.90
18777;DHT22;9517;51.174;4.160;2023-02-01T03:15:26;5.60;99.90
18777;DHT22;9517;51.174;4.160;2023-02-01T03:17:58;5.60;99.90
18777;DHT22;9517;51.174;4.160;2023-02-01T03:20:30;5.60;99.90
18777;DHT22;9517;51.174;4.160;2023-02-01T03:22:59;5.60;99.90
18777;DHT22;9517;51.174;4.160;2023-02-01T03:25:30;5.50;99.90
18777;DHT22;9517;51.174;4.160;2023-02-01T03:28:00;5.50;99.90
18777;DHT22;9517;51.174;4.160;2023-02-01T03:30:30;5.60;99.90
18777;DHT22;9517;51.174;4.160;2023-02-01T03:33:00;5.50;99.90
18777;DHT22;9517;51.174;4.160;2023-02-01T03:35:33;5.50;99.90
18777;DHT22;9517;51.174;4.160;2023-02-01T03:38:12;5.50;99.90
18777;DHT22;9517;51.174;4.160;2023-02-01T03:40:41;5.50;99.90
18777;DHT22;9517;51.174;4.160;2023-02-01T03:43:14;5.40;99.90
18777;DHT22;9517;51.174;4.160;2023-02-01T03:45:48;5.40;99.90
18777;DHT22;9517;51.174;4.160;2023-02-01T03:48:17;5.40;99.90
18777;DHT22;9517;51.174;4.160;2023-02-01T03:50:49;5.30;99.90
18777;DHT22;9517;51.174;4.160;2023-02-01T03:53:21;5.40;99.90
18777;DHT22;9517;51.174;4.160;2023-02-01T03:55:50;5.30;99.90
18777;DHT22;9517;51.174;4.160;2023-02-01T03:58:19;5.30;99.90
18777;DHT22;9517;51.174;4.160;2023-02-01T04:00:51;5.30;99.90
18777;DHT22;9517;51.174;4.160;2023-02-01T04:03:18;5.30;99.90
18777;DHT22;9517;51.174;4.160;2023-02-01T04:05:51;5.30;99.90
18777;DHT22;9517;51.174;4.160;2023-02-01T04:08:20;5.30;99.90
18777;DHT22;9517;51.174;4.160;2023-02-01T04:10:47;5.30;99.90
18777;DHT22;9517;51.174;4.160;2023-02-01T04:13:14;5.30;99.90
18777;DHT22;9517;51.174;4.160;2023-02-01T04:15:41;5.30;99.90
18777;DHT22;9517;51.174;4.160;2023-02-01T04:18:10;5.30;99.90
18777;DHT22;9517;51.174;4.160;2023-02-01T04:20:37;5.30;99.90
18777;DHT22;9517;51.174;4.160;2023-02-01T04:23:04;5.30;99.90
18777;DHT22;9517;51.174;4.160;2023-02-01T04:25:33;5.30;99.90
18777;DHT22;9517;51.174;4.160;2023-02-01T04:28:00;5.30;99.90
18777;DHT22;9517;51.174;4.160;2023-02-01T04:30:27;5.30;99.90
18777;DHT22;9517;51.174;4.160;2023-02-01T04:32:54;5.20;99.90
18777;DHT22;9517;51.174;4.160;2023-02-01T04:35:21;5.20;99.90
18777;DHT22;9517;51.174;4.160;2023-02-01T04:37:48;5.10;99.90
18777;DHT22;9517;51.174;4.160;2023-02-01T04:40:16;5.10;99.90
18777;DHT22;9517;51.174;4.160;2023-02-01T04:42:44;5.00;99.90
18777;DHT22;9517;51.174;4.160;2023-02-01T04:45:11;5.10;99.90
18777;DHT22;9517;51.174;4.160;2023-02-01T04:47:39;5.00;99.90
18777;DHT22;9517;51.174;4.160;2023-02-01T04:50:06;5.00;99.90
18777;DHT22;9517;51.174;4.160;2023-02-01T04:52:36;4.90;99.90
18777;DHT22;9517;51.174;4.160;2023-02-01T04:55:04;4.90;99.90
18777;DHT22;9517;51.174;4.160;2023-02-01T04:57:31;4.90;99.90
18777;DHT22;9517;51.174;4.160;2023-02-01T05:00:00;4.90;99.90
18777;DHT22;9517;51.174;4.160;2023-02-01T05:02:27;4.90;99.90
18777;DHT22;9517;51.174;4.160;2023-02-01T05:04:54;4.90;99.90
18777;DHT22;9517;51.174;4.160;2023-02-01T05:07:21;4.80;99.90
18777;DHT22;9517;51.174;4.160;2023-02-01T05:09:49;4.80;99.90
18777;DHT22;9517;51.174;4.160;2023-02-01T05:12:16;4.80;99.90
18777;DHT22;9517;51.174;4.160;2023-02-01T06:23:35;4.70;99.90
18777;DHT22;9517;51.174;4.160;2023-02-01T06:54:33;4.70;99.90
18777;DHT22;9517;51.174;4.160;2023-02-01T07:00:06;4.70;99.90
18777;DHT22;9517;51.174;4.160;2023-02-01T07:02:50;4.70;99.90
18777;DHT22;9517;51.174;4.160;2023-02-01T07:05:43;4.70;99.90
18777;DHT22;9517;51.174;4.160;2023-02-01T07:12:10;4.70;99.90
18777;DHT22;9517;51.174;4.160;2023-02-01T07:14:38;4.70;99.90
18777;DHT22;9517;51.174;4.160;2023-02-01T07:17:08;4.70;99.90
18777;DHT22;9517;51.174;4.160;2023-02-01T07:19:35;4.70;99.90
18777;DHT22;9517;51.174;4.160;2023-02-01T07:22:04;4.70;99.90
18777;DHT22;9517;51.174;4.160;2023-02-01T07:24:33;4.70;99.90
18777;DHT22;9517;51.174;4.160;2023-02-01T07:27:14;4.70;99.90
18777;DHT22;9517;51.174;4.160;2023-02-01T07:29:44;4.70;99.90
18777;DHT22;9517;51.174;4.160;2023-02-01T07:32:18;4.80;99.90
18777;DHT22;9517;51.174;4.160;2023-02-01T07:34:52;4.80;99.90
18777;DHT22;9517;51.174;4.160;2023-02-01T07:37:24;4.80;99.90
18777;DHT22;9517;51.174;4.160;2023-02-01T07:39:52;4.80;99.90
18777;DHT22;9517;51.174;4.160;2023-02-01T07:42:25;4.90;99.90
18777;DHT22;9517;51.174;4.160;2023-02-01T07:44:58;4.90;99.90
18777;DHT22;9517;51.174;4.160;2023-02-01T07:47:26;5.00;99.90
18777;DHT22;9517;51.174;4.160;2023-02-01T07:49:58;5.00;99.90
18777;DHT22;9517;51.174;4.160;2023-02-01T07:52:28;5.10;99.90
18777;DHT22;9517;51.174;4.160;2023-02-01T07:54:55;5.10;99.90
18777;DHT22;9517;51.174;4.160;2023-02-01T07:57:24;5.20;99.90
18777;DHT22;9517;51.174;4.160;2023-02-01T07:59:52;5.20;99.90
18777;DHT22;9517;51.174;4.160;2023-02-01T08:02:36;5.30;99.90
18777;DHT22;9517;51.174;4.160;2023-02-01T08:05:10;5.30;99.90
18777;DHT22;9517;51.174;4.160;2023-02-01T08:07:51;5.30;99.90
18777;DHT22;9517;51.174;4.160;2023-02-01T08:10:31;5.40;99.90
18777;DHT22;9517;51.174;4.160;2023-02-01T08:13:11;5.40;99.90
18777;DHT22;9517;51.174;4.160;2023-02-01T08:15:41;5.40;99.90
18777;DHT22;9517;51.174;4.160;2023-02-01T08:18:09;5.50;99.90
18777;DHT22;9517;51.174;4.160;2023-02-01T08:20:42;5.50;99.90
18777;DHT22;9517;51.174;4.160;2023-02-01T08:26:12;5.50;99.90
18777;DHT22;9517;51.174;4.160;2023-02-01T08:29:10;5.50;99.90
18777;DHT22;9517;51.174;4.160;2023-02-01T08:31:50;5.50;99.90
18777;DHT22;9517;51.174;4.160;2023-02-01T08:34:25;5.50;99.90
18777;DHT22;9517;51.174;4.160;2023-02-01T08:37:04;5.60;99.90
18777;DHT22;9517;51.174;4.160;2023-02-01T08:39:33;5.60;99.90
18777;DHT22;9517;51.174;4.160;2023-02-01T08:42:12;5.70;99.90
18777;DHT22;9517;51.174;4.160;2023-02-01T08:45:02;5.80;99.90
18777;DHT22;9517;51.174;4.160;2023-02-01T08:47:33;5.80;99.90
18777;DHT22;9517;51.174;4.160;2023-02-01T08:50:06;6.00;99.90
18777;DHT22;9517;51.174;4.160;2023-02-01T08:52:34;6.00;99.90
18777;DHT22;9517;51.174;4.160;2023-02-01T08:55:07;6.10;99.90
18777;DHT22;9517;51.174;4.160;2023-02-01T09:58:33;7.70;99.90
18777;DHT22;9517;51.174;4.160;2023-02-01T10:01:27;7.90;99.90
18777;DHT22;9517;51.174;4.160;2023-02-01T10:07:40;8.10;99.90
18777;DHT22;9517;51.174;4.160;2023-02-01T10:10:20;8.20;99.90
18777;DHT22;9517;51.174;4.160;2023-02-01T10:15:59;8.50;99.90
18777;DHT22;9517;51.174;4.160;2023-02-01T10:19:12;8.80;99.90
18777;DHT22;9517;51.174;4.160;2023-02-01T10:21:51;8.90;99.90
18777;DHT22;9517;51.174;4.160;2023-02-01T10:24:41;9.00;99.90
18777;DHT22;9517;51.174;4.160;2023-02-01T11:08:42;9.90;99.90
18777;DHT22;9517;51.174;4.160;2023-02-01T11:11:13;9.70;99.90
18777;DHT22;9517;51.174;4.160;2023-02-01T11:13:44;9.70;99.90
18777;DHT22;9517;51.174;4.160;2023-02-01T11:16:14;9.80;99.90
18777;DHT22;9517;51.174;4.160;2023-02-01T11:18:52;10.10;99.90
18777;DHT22;9517;51.174;4.160;2023-02-01T11:21:22;10.00;99.90
18777;DHT22;9517;51.174;4.160;2023-02-01T11:24:11;9.90;99.90
18777;DHT22;9517;51.174;4.160;2023-02-01T11:30:15;9.80;99.90
18777;DHT22;9517;51.174;4.160;2023-02-01T11:32:48;9.80;99.90
18777;DHT22;9517;51.174;4.160;2023-02-01T11:39:07;9.90;99.90
18777;DHT22;9517;51.174;4.160;2023-02-01T11:45:40;9.80;99.90
18777;DHT22;9517;51.174;4.160;2023-02-01T11:48:18;9.90;99.90
18777;DHT22;9517;51.174;4.160;2023-02-01T11:51:15;9.70;99.90
18777;DHT22;9517;51.174;4.160;2023-02-01T11:54:23;9.80;99.90
18777;DHT22;9517;51.174;4.160;2023-02-01T13:44:11;10.30;99.90
18777;DHT22;9517;51.174;4.160;2023-02-01T13:49:46;10.40;99.90
18777;DHT22;9517;51.174;4.160;2023-02-01T13:52:34;10.20;99.90
18777;DHT22;9517;51.174;4.160;2023-02-01T13:55:32;10.10;99.90
18777;DHT22;9517;51.174;4.160;2023-02-01T14:00:53;10.10;99.90
18777;DHT22;9517;51.174;4.160;2023-02-01T14:03:54;10.00;99.90
18777;DHT22;9517;51.174;4.160;2023-02-01T14:06:59;9.90;99.90
18777;DHT22;9517;51.174;4.160;2023-02-01T14:09:39;9.80;99.90
18777;DHT22;9517;51.174;4.160;2023-02-01T14:12:45;9.70;99.90
18777;DHT22;9517;51.174;4.160;2023-02-01T14:15:31;9.70;99.90
18777;DHT22;9517;51.174;4.160;2023-02-01T14:17:58;9.70;99.90
18777;DHT22;9517;51.174;4.160;2023-02-01T14:20:44;9.60;99.90
18777;DHT22;9517;51.174;4.160;2023-02-01T14:23:29;9.60;99.90
18777;DHT22;9517;51.174;4.160;2023-02-01T14:26:10;9.50;99.90
18777;DHT22;9517;51.174;4.160;2023-02-01T14:28:45;9.60;99.90
18777;DHT22;9517;51.174;4.160;2023-02-01T14:31:58;9.50;99.90
18777;DHT22;9517;51.174;4.160;2023-02-01T14:37:26;9.40;99.90
18777;DHT22;9517;51.174;4.160;2023-02-01T14:39:59;9.30;99.90
18777;DHT22;9517;51.174;4.160;2023-02-01T14:42:32;9.20;99.90
18777;DHT22;9517;51.174;4.160;2023-02-01T14:48:41;9.20;99.90
18777;DHT22;9517;51.174;4.160;2023-02-01T14:51:13;9.30;99.90
18777;DHT22;9517;51.174;4.160;2023-02-01T14:57:13;9.20;99.90
18777;DHT22;9517;51.174;4.160;2023-02-01T14:59:43;9.20;99.90
18777;DHT22;9517;51.174;4.160;2023-02-01T15:02:26;9.20;99.90
18777;DHT22;9517;51.174;4.160;2023-02-01T15:05:25;9.20;99.90
18777;DHT22;9517;51.174;4.160;2023-02-01T15:25:30;9.10;99.90
18777;DHT22;9517;51.174;4.160;2023-02-01T15:31:35;9.10;99.90
18777;DHT22;9517;51.174;4.160;2023-02-01T15:44:24;9.00;99.90
18777;DHT22;9517;51.174;4.160;2023-02-01T15:46:59;9.00;99.90
18777;DHT22;9517;51.174;4.160;2023-02-01T15:49:37;8.90;99.90
18777;DHT22;9517;51.174;4.160;2023-02-01T15:52:20;8.90;99.90
18777;DHT22;9517;51.174;4.160;2023-02-01T15:54:52;8.90;99.90
18777;DHT22;9517;51.174;4.160;2023-02-01T16:01:06;8.90;99.90
18777;DHT22;9517;51.174;4.160;2023-02-01T16:03:44;8.80;99.90
18777;DHT22;9517;51.174;4.160;2023-02-01T16:06:30;8.80;99.90
18777;DHT22;9517;51.174;4.160;2023-02-01T16:09:50;8.90;99.90
18777;DHT22;9517;51.174;4.160;2023-02-01T16:12:30;8.80;99.90
18777;DHT22;9517;51.174;4.160;2023-02-01T16:15:14;8.90;99.90
18777;DHT22;9517;51.174;4.160;2023-02-01T16:18:23;8.90;99.90
18777;DHT22;9517;51.174;4.160;2023-02-01T16:20:55;8.80;99.90
18777;DHT22;9517;51.174;4.160;2023-02-01T16:23:25;8.80;99.90
18777;DHT22;9517;51.174;4.160;2023-02-01T16:29:28;8.80;99.90
18777;DHT22;9517;51.174;4.160;2023-02-01T16:32:38;8.80;99.90
18777;DHT22;9517;51.174;4.160;2023-02-01T16:35:31;8.70;99.90
18777;DHT22;9517;51.174;4.160;2023-02-01T16:38:01;8.80;99.90
18777;DHT22;9517;51.174;4.160;2023-02-01T16:40:34;8.70;99.90
18777;DHT22;9517;51.174;4.160;2023-02-01T16:43:33;8.80;99.90
18777;DHT22;9517;51.174;4.160;2023-02-01T16:46:01;8.80;99.90
18777;DHT22;9517;51.174;4.160;2023-02-01T16:48:37;8.70;99.90
18777;DHT22;9517;51.174;4.160;2023-02-01T17:26:15;8.90;99.90
18777;DHT22;9517;51.174;4.160;2023-02-01T17:29:05;8.80;99.90
18777;DHT22;9517;51.174;4.160;2023-02-01T17:31:45;8.80;99.90
18777;DHT22;9517;51.174;4.160;2023-02-01T17:34:38;8.80;99.90
18777;DHT22;9517;51.174;4.160;2023-02-01T19:10:46;8.60;99.90
18777;DHT22;9517;51.174;4.160;2023-02-01T19:26:21;8.60;99.90
18777;DHT22;9517;51.174;4.160;2023-02-01T19:28:58;8.60;99.90
18777;DHT22;9517;51.174;4.160;2023-02-01T19:35:09;8.60;99.90
18777;DHT22;9517;51.174;4.160;2023-02-01T19:44:33;8.60;99.90
18777;DHT22;9517;51.174;4.160;2023-02-01T19:47:01;8.60;99.90
18777;DHT22;9517;51.174;4.160;2023-02-01T19:49:31;8.60;99.90
18777;DHT22;9517;51.174;4.160;2023-02-01T19:51:58;8.60;99.90
18777;DHT22;9517;51.174;4.160;2023-02-01T19:54:40;8.60;99.90
18777;DHT22;9517;51.174;4.160;2023-02-01T20:23:38;8.50;99.90
18777;DHT22;9517;51.174;4.160;2023-02-01T20:29:29;8.60;99.90
18777;DHT22;9517;51.174;4.160;2023-02-01T20:32:59;8.50;99.90
18777;DHT22;9517;51.174;4.160;2023-02-01T20:42:21;8.60;99.90
18777;DHT22;9517;51.174;4.160;2023-02-01T20:50:10;8.60;99.90
18777;DHT22;9517;51.174;4.160;2023-02-01T20:52:37;8.60;99.90
18777;DHT22;9517;51.174;4.160;2023-02-01T20:55:05;8.60;99.90
18777;DHT22;9517;51.174;4.160;2023-02-01T20:57:34;8.60;99.90
18777;DHT22;9517;51.174;4.160;2023-02-01T21:00:02;8.60;99.90
18777;DHT22;9517;51.174;4.160;2023-02-01T21:02:32;8.60;99.90
18777;DHT22;9517;51.174;4.160;2023-02-01T21:05:00;8.60;99.90
18777;DHT22;9517;51.174;4.160;2023-02-01T21:07:29;8.70;99.90
18777;DHT22;9517;51.174;4.160;2023-02-01T21:09:56;8.60;99.90
18777;DHT22;9517;51.174;4.160;2023-02-01T21:12:26;8.60;99.90
18777;DHT22;9517;51.174;4.160;2023-02-01T21:14:54;8.60;99.90
18777;DHT22;9517;51.174;4.160;2023-02-01T21:17:22;8.60;99.90
18777;DHT22;9517;51.174;4.160;2023-02-01T21:19:53;8.60;99.90
18777;DHT22;9517;51.174;4.160;2023-02-01T21:22:20;8.60;99.90
18777;DHT22;9517;51.174;4.160;2023-02-01T21:24:47;8.70;99.90
18777;DHT22;9517;51.174;4.160;2023-02-01T21:27:15;8.60;99.90
18777;DHT22;9517;51.174;4.160;2023-02-01T21:29:42;8.70;99.90
18777;DHT22;9517;51.174;4.160;2023-02-01T21:32:11;8.60;99.90
18777;DHT22;9517;51.174;4.160;2023-02-01T21:34:38;8.60;99.90
18777;DHT22;9517;51.174;4.160;2023-02-01T21:37:05;8.70;99.90
18777;DHT22;9517;51.174;4.160;2023-02-01T21:39:32;8.70;99.90
18777;DHT22;9517;51.174;4.160;2023-02-01T21:42:00;8.70;99.90
18777;DHT22;9517;51.174;4.160;2023-02-01T21:44:44;8.80;99.90
18777;DHT22;9517;51.174;4.160;2023-02-01T21:47:14;8.80;99.90
18777;DHT22;9517;51.174;4.160;2023-02-01T21:49:42;8.90;99.90
18777;DHT22;9517;51.174;4.160;2023-02-01T21:52:10;8.90;99.90
18777;DHT22;9517;51.174;4.160;2023-02-01T21:54:37;8.90;99.90
18777;DHT22;9517;51.174;4.160;2023-02-01T21:57:05;8.90;99.90
18777;DHT22;9517;51.174;4.160;2023-02-01T21:59:33;9.00;99.90
18777;DHT22;9517;51.174;4.160;2023-02-01T22:02:01;9.00;99.90
18777;DHT22;9517;51.174;4.160;2023-02-01T22:04:30;9.00;99.90
18777;DHT22;9517;51.174;4.160;2023-02-01T22:06:58;9.00;99.90
18777;DHT22;9517;51.174;4.160;2023-02-01T22:09:25;9.00;99.90
18777;DHT22;9517;51.174;4.160;2023-02-01T22:11:53;9.00;99.90
18777;DHT22;9517;51.174;4.160;2023-02-01T22:14:22;9.00;99.90
18777;DHT22;9517;51.174;4.160;2023-02-01T22:16:49;9.10;99.90
18777;DHT22;9517;51.174;4.160;2023-02-01T22:19:17;9.00;99.90
18777;DHT22;9517;51.174;4.160;2023-02-01T22:21:47;9.10;99.90
18777;DHT22;9517;51.174;4.160;2023-02-01T22:24:15;9.00;99.90
18777;DHT22;9517;51.174;4.160;2023-02-01T22:26:45;9.10;99.90
18777;DHT22;9517;51.174;4.160;2023-02-01T22:29:12;9.10;99.90
18777;DHT22;9517;51.174;4.160;2023-02-01T22:31:45;9.10;99.90
18777;DHT22;9517;51.174;4.160;2023-02-01T22:34:13;9.10;99.90
18777;DHT22;9517;51.174;4.160;2023-02-01T22:36:52;9.10;99.90
18777;DHT22;9517;51.174;4.160;2023-02-01T22:39:22;9.10;99.90
18777;DHT22;9517;51.174;4.160;2023-02-01T22:41:49;9.10;99.90
18777;DHT22;9517;51.174;4.160;2023-02-01T22:44:17;9.10;99.90
18777;DHT22;9517;51.174;4.160;2023-02-01T22:46:44;9.10;99.90
18777;DHT22;9517;51.174;4.160;2023-02-01T22:49:11;9.10;99.90
18777;DHT22;9517;51.174;4.160;2023-02-01T22:51:38;9.10;99.90
18777;DHT22;9517;51.174;4.160;2023-02-01T22:54:08;9.10;99.90
18777;DHT22;9517;51.174;4.160;2023-02-01T22:56:39;9.10;99.90
18777;DHT22;9517;51.174;4.160;2023-02-01T22:59:10;9.10;99.90
18777;DHT22;9517;51.174;4.160;2023-02-01T23:01:38;9.10;99.90
18777;DHT22;9517;51.174;4.160;2023-02-01T23:04:06;9.10;99.90
18777;DHT22;9517;51.174;4.160;2023-02-01T23:06:33;9.10;99.90
18777;DHT22;9517;51.174;4.160;2023-02-01T23:09:02;9.20;99.90
18777;DHT22;9517;51.174;4.160;2023-02-01T23:11:32;9.20;99.90
18777;DHT22;9517;51.174;4.160;2023-02-01T23:13:59;9.20;99.90
18777;DHT22;9517;51.174;4.160;2023-02-01T23:16:26;9.20;99.90
18777;DHT22;9517;51.174;4.160;2023-02-01T23:18:53;9.20;99.90
18777;DHT22;9517;51.174;4.160;2023-02-01T23:21:22;9.20;99.90
18777;DHT22;9517;51.174;4.160;2023-02-01T23:23:51;9.20;99.90
18777;DHT22;9517;51.174;4.160;2023-02-01T23:26:19;9.10;99.90
18777;DHT22;9517;51.174;4.160;2023-02-01T23:28:48;9.10;99.90
18777;DHT22;9517;51.174;4.160;2023-02-01T23:31:16;9.20;99.90
18777;DHT22;9517;51.174;4.160;2023-02-01T23:33:44;9.10;99.90
18777;DHT22;9517;51.174;4.160;2023-02-01T23:36:15;9.10;99.90
18777;DHT22;9517;51.174;4.160;2023-02-01T23:38:43;9.10;99.90
18777;DHT22;9517;51.174;4.160;2023-02-01T23:41:11;9.10;99.90
18777;DHT22;9517;51.174;4.160;2023-02-01T23:43:39;9.10;99.90
18777;DHT22;9517;51.174;4.160;2023-02-01T23:46:31;9.10;99.90
18777;DHT22;9517;51.174;4.160;2023-02-01T23:48:59;9.20;99.90
18777;DHT22;9517;51.174;4.160;2023-02-01T23:51:27;9.20;99.90
18777;DHT22;9517;51.174;4.160;2023-02-01T23:53:54;9.10;99.90
18777;DHT22;9517;51.174;4.160;2023-02-01T23:56:25;9.10;99.90
18777;DHT22;9517;51.174;4.160;2023-02-01T23:58:53;9.10;99.90
